sensor_id;sensor_type;location;lat;lon;timestamp;pressure;altitude;pressure_sealevel;temperature;humidity
59337;BME280;45115;52.002;4.686;2024-03-29T00:02:04;99081.63;;;8.64;69.81
59337;BME280;45115;52.002;4.686;2024-03-29T00:04:30;99084.00;;;8.67;69.33
59337;BME280;45115;52.002;4.686;2024-03-29T00:06:56;99075.50;;;8.67;69.41
59337;BME280;45115;52.002;4.686;2024-03-29T00:09:22;99074.59;;;8.68;69.78
59337;BME280;45115;52.002;4.686;2024-03-29T00:11:48;99071.13;;;8.69;69.60
59337;BME280;45115;52.002;4.686;2024-03-29T00:14:15;99079.81;;;8.66;69.59
59337;BME280;45115;52.002;4.686;2024-03-29T00:16:40;99071.78;;;8.72;69.46
59337;BME280;45115;52.002;4.686;2024-03-29T00:19:06;99069.94;;;8.74;68.89
59337;BME280;45115;52.002;4.686;2024-03-29T00:21:32;99075.25;;;8.71;69.31
59337;BME280;45115;52.002;4.686;2024-03-29T00:23:58;99084.47;;;8.74;69.36
59337;BME280;45115;52.002;4.686;2024-03-29T00:26:23;99091.66;;;8.81;69.13
59337;BME280;45115;52.002;4.686;2024-03-29T00:28:49;99098.44;;;8.82;68.66
59337;BME280;45115;52.002;4.686;2024-03-29T00:31:16;99093.66;;;8.76;69.25
59337;BME280;45115;52.002;4.686;2024-03-29T00:33:42;99091.66;;;8.81;68.74
59337;BME280;45115;52.002;4.686;2024-03-29T00:36:08;99087.72;;;8.76;68.97
59337;BME280;45115;52.002;4.686;2024-03-29T00:38:34;99090.41;;;8.74;68.69
59337;BME280;45115;52.002;4.686;2024-03-29T00:41:00;99097.06;;;8.63;69.31
59337;BME280;45115;52.002;4.686;2024-03-29T00:43:26;99089.94;;;8.68;68.96
59337;BME280;45115;52.002;4.686;2024-03-29T00:45:52;99098.72;;;8.64;69.39
59337;BME280;45115;52.002;4.686;2024-03-29T00:48:19;99099.53;;;8.64;69.58
59337;BME280;45115;52.002;4.686;2024-03-29T00:50:45;99109.75;;;8.64;69.21
59337;BME280;45115;52.002;4.686;2024-03-29T00:53:10;99101.91;;;8.67;69.18
59337;BME280;45115;52.002;4.686;2024-03-29T00:55:36;99103.81;;;8.64;69.12
59337;BME280;45115;52.002;4.686;2024-03-29T00:58:02;99105.91;;;8.57;69.61
59337;BME280;45115;52.002;4.686;2024-03-29T01:00:28;99110.31;;;8.69;69.50
59337;BME280;45115;52.002;4.686;2024-03-29T01:02:53;99107.03;;;8.67;69.57
59337;BME280;45115;52.002;4.686;2024-03-29T01:05:21;99114.53;;;8.70;69.08
59337;BME280;45115;52.002;4.686;2024-03-29T01:07:46;99121.28;;;8.71;69.49
59337;BME280;45115;52.002;4.686;2024-03-29T01:10:12;99114.53;;;8.70;69.35
59337;BME280;45115;52.002;4.686;2024-03-29T01:12:38;99117.00;;;8.72;69.10
59337;BME280;45115;52.002;4.686;2024-03-29T01:15:04;99108.84;;;8.79;68.62
59337;BME280;45115;52.002;4.686;2024-03-29T01:17:30;99107.00;;;8.81;68.25
59337;BME280;45115;52.002;4.686;2024-03-29T01:19:56;99099.16;;;8.85;68.56
59337;BME280;45115;52.002;4.686;2024-03-29T01:22:23;99106.19;;;8.81;68.89
59337;BME280;45115;52.002;4.686;2024-03-29T01:24:49;99105.53;;;8.77;68.64
59337;BME280;45115;52.002;4.686;2024-03-29T01:27:15;99106.47;;;8.76;68.55
59337;BME280;45115;52.002;4.686;2024-03-29T01:29:40;99098.25;;;8.86;68.44
59337;BME280;45115;52.002;4.686;2024-03-29T01:32:07;99100.81;;;8.86;68.22
59337;BME280;45115;52.002;4.686;2024-03-29T01:34:32;99098.50;;;8.81;68.49
59337;BME280;45115;52.002;4.686;2024-03-29T01:36:58;99095.78;;;8.84;68.63
59337;BME280;45115;52.002;4.686;2024-03-29T01:39:25;99086.28;;;8.86;68.05
59337;BME280;45115;52.002;4.686;2024-03-29T01:41:52;99083.63;;;8.88;68.16
59337;BME280;45115;52.002;4.686;2024-03-29T01:44:18;99086.19;;;8.88;67.79
59337;BME280;45115;52.002;4.686;2024-03-29T01:46:45;99081.81;;;8.90;68.23
59337;BME280;45115;52.002;4.686;2024-03-29T01:49:13;99078.97;;;8.80;68.02
59337;BME280;45115;52.002;4.686;2024-03-29T01:51:40;99073.44;;;8.73;68.90
59337;BME280;45115;52.002;4.686;2024-03-29T01:54:08;99090.19;;;8.77;68.32
59337;BME280;45115;52.002;4.686;2024-03-29T01:56:37;99094.78;;;8.72;68.36
59337;BME280;45115;52.002;4.686;2024-03-29T01:59:11;99093.31;;;8.54;68.88
59337;BME280;45115;52.002;4.686;2024-03-29T02:01:40;99100.31;;;8.51;69.14
59337;BME280;45115;52.002;4.686;2024-03-29T02:04:08;99092.41;;;8.41;70.02
59337;BME280;45115;52.002;4.686;2024-03-29T02:06:34;99098.88;;;8.46;69.67
59337;BME280;45115;52.002;4.686;2024-03-29T02:09:01;99097.16;;;8.47;69.37
59337;BME280;45115;52.002;4.686;2024-03-29T02:11:29;99102.34;;;8.45;69.69
59337;BME280;45115;52.002;4.686;2024-03-29T02:13:57;99098.41;;;8.40;70.20
59337;BME280;45115;52.002;4.686;2024-03-29T02:16:24;99098.16;;;8.44;69.87
59337;BME280;45115;52.002;4.686;2024-03-29T02:18:51;99101.97;;;8.37;70.30
59337;BME280;45115;52.002;4.686;2024-03-29T02:21:17;99097.69;;;8.38;70.28
59337;BME280;45115;52.002;4.686;2024-03-29T02:23:46;99106.75;;;8.28;70.93
59337;BME280;45115;52.002;4.686;2024-03-29T02:26:17;99126.47;;;8.26;70.77
59337;BME280;45115;52.002;4.686;2024-03-29T02:28:43;99118.06;;;8.24;70.97
59337;BME280;45115;52.002;4.686;2024-03-29T02:31:10;99117.16;;;8.25;70.75
59337;BME280;45115;52.002;4.686;2024-03-29T02:33:37;99120.78;;;8.21;70.91
59337;BME280;45115;52.002;4.686;2024-03-29T02:36:04;99120.78;;;8.21;70.67
59337;BME280;45115;52.002;4.686;2024-03-29T02:38:31;99116.16;;;8.27;70.41
59337;BME280;45115;52.002;4.686;2024-03-29T02:40:58;99123.56;;;8.32;70.28
59337;BME280;45115;52.002;4.686;2024-03-29T02:43:26;99118.94;;;8.38;69.65
59337;BME280;45115;52.002;4.686;2024-03-29T02:45:53;99111.19;;;8.40;69.77
59337;BME280;45115;52.002;4.686;2024-03-29T02:48:18;99111.75;;;8.45;69.42
59337;BME280;45115;52.002;4.686;2024-03-29T02:50:45;99109.66;;;8.52;69.05
59337;BME280;45115;52.002;4.686;2024-03-29T02:53:11;99112.03;;;8.55;68.74
59337;BME280;45115;52.002;4.686;2024-03-29T02:55:38;99111.94;;;8.56;68.76
59337;BME280;45115;52.002;4.686;2024-03-29T02:58:03;99115.69;;;8.65;68.76
59337;BME280;45115;52.002;4.686;2024-03-29T03:00:31;99110.31;;;8.69;68.05
59337;BME280;45115;52.002;4.686;2024-03-29T03:02:57;99109.22;;;8.73;68.19
59337;BME280;45115;52.002;4.686;2024-03-29T03:05:24;99112.59;;;8.74;67.57
59337;BME280;45115;52.002;4.686;2024-03-29T03:07:49;99117.06;;;8.70;67.99
59337;BME280;45115;52.002;4.686;2024-03-29T03:10:34;99117.06;;;8.85;66.71
59337;BME280;45115;52.002;4.686;2024-03-29T03:13:18;99123.66;;;8.89;66.95
59337;BME280;45115;52.002;4.686;2024-03-29T03:15:46;99122.72;;;8.90;66.91
59337;BME280;45115;52.002;4.686;2024-03-29T03:18:13;99120.00;;;8.93;66.84
59337;BME280;45115;52.002;4.686;2024-03-29T03:20:39;99132.59;;;8.96;66.86
59337;BME280;45115;52.002;4.686;2024-03-29T03:23:05;99129.78;;;9.00;66.18
59337;BME280;45115;52.002;4.686;2024-03-29T03:25:32;99128.41;;;8.95;66.50
59337;BME280;45115;52.002;4.686;2024-03-29T03:27:58;99135.50;;;9.04;65.77
59337;BME280;45115;52.002;4.686;2024-03-29T03:30:24;99141.44;;;9.04;66.22
59337;BME280;45115;52.002;4.686;2024-03-29T03:32:51;99134.59;;;9.05;66.22
59337;BME280;45115;52.002;4.686;2024-03-29T03:35:18;99135.88;;;9.12;66.23
59337;BME280;45115;52.002;4.686;2024-03-29T03:37:44;99143.56;;;9.12;65.52
59337;BME280;45115;52.002;4.686;2024-03-29T03:40:11;99136.06;;;9.09;65.82
59337;BME280;45115;52.002;4.686;2024-03-29T03:42:36;99136.06;;;9.09;66.10
59337;BME280;45115;52.002;4.686;2024-03-29T03:45:04;99142.28;;;9.05;66.56
59337;BME280;45115;52.002;4.686;2024-03-29T03:47:29;99143.19;;;9.18;65.63
59337;BME280;45115;52.002;4.686;2024-03-29T03:49:58;99142.63;;;9.13;66.17
59337;BME280;45115;52.002;4.686;2024-03-29T03:52:23;99136.69;;;9.12;66.07
59337;BME280;45115;52.002;4.686;2024-03-29T03:54:50;99139.06;;;9.15;65.96
59337;BME280;45115;52.002;4.686;2024-03-29T03:57:15;99140.06;;;9.13;66.17
59337;BME280;45115;52.002;4.686;2024-03-29T03:59:42;99151.22;;;9.12;66.04
59337;BME280;45115;52.002;4.686;2024-03-29T04:02:08;99153.97;;;9.09;66.31
59337;BME280;45115;52.002;4.686;2024-03-29T04:04:35;99156.53;;;9.09;66.21
59337;BME280;45115;52.002;4.686;2024-03-29T04:07:02;99147.94;;;9.10;66.25
59337;BME280;45115;52.002;4.686;2024-03-29T04:09:29;99155.44;;;9.13;66.05
59337;BME280;45115;52.002;4.686;2024-03-29T04:11:54;99143.81;;;9.07;66.32
59337;BME280;45115;52.002;4.686;2024-03-29T04:14:21;99150.59;;;9.08;66.38
59337;BME280;45115;52.002;4.686;2024-03-29T04:16:47;99154.88;;;9.08;66.64
59337;BME280;45115;52.002;4.686;2024-03-29T04:19:13;99161.00;;;9.05;66.53
59337;BME280;45115;52.002;4.686;2024-03-29T04:21:39;99158.53;;;9.04;66.96
59337;BME280;45115;52.002;4.686;2024-03-29T04:24:07;99154.91;;;8.94;67.39
59337;BME280;45115;52.002;4.686;2024-03-29T04:26:35;99154.72;;;8.97;67.53
59337;BME280;45115;52.002;4.686;2024-03-29T04:29:02;99149.03;;;9.06;66.41
59337;BME280;45115;52.002;4.686;2024-03-29T04:31:28;99159.56;;;9.01;66.82
59337;BME280;45115;52.002;4.686;2024-03-29T04:33:55;99160.28;;;9.03;66.76
59337;BME280;45115;52.002;4.686;2024-03-29T04:36:20;99151.44;;;8.95;67.88
59337;BME280;45115;52.002;4.686;2024-03-29T04:38:47;99144.56;;;8.95;67.75
59337;BME280;45115;52.002;4.686;2024-03-29T04:41:15;99156.28;;;8.99;67.81
59337;BME280;45115;52.002;4.686;2024-03-29T04:43:43;99160.94;;;8.93;67.84
59337;BME280;45115;52.002;4.686;2024-03-29T04:46:11;99157.38;;;8.95;68.27
59337;BME280;45115;52.002;4.686;2024-03-29T04:48:38;99165.31;;;8.91;68.75
59337;BME280;45115;52.002;4.686;2024-03-29T04:51:05;99170.69;;;8.86;68.97
59337;BME280;45115;52.002;4.686;2024-03-29T04:53:32;99163.47;;;8.78;70.18
59337;BME280;45115;52.002;4.686;2024-03-29T04:55:59;99169.31;;;8.80;69.70
59337;BME280;45115;52.002;4.686;2024-03-29T04:58:27;99171.13;;;8.78;70.02
59337;BME280;45115;52.002;4.686;2024-03-29T05:00:54;99178.97;;;8.75;70.44
59337;BME280;45115;52.002;4.686;2024-03-29T05:03:22;99175.91;;;8.70;71.06
59337;BME280;45115;52.002;4.686;2024-03-29T05:05:50;99169.31;;;8.66;71.38
59337;BME280;45115;52.002;4.686;2024-03-29T05:08:17;99166.00;;;8.64;71.44
59337;BME280;45115;52.002;4.686;2024-03-29T05:10:45;99173.94;;;8.60;72.42
59337;BME280;45115;52.002;4.686;2024-03-29T05:13:12;99175.94;;;8.55;73.37
59337;BME280;45115;52.002;4.686;2024-03-29T05:15:40;99179.13;;;8.44;73.91
59337;BME280;45115;52.002;4.686;2024-03-29T05:18:07;99175.19;;;8.38;74.56
59337;BME280;45115;52.002;4.686;2024-03-29T05:20:34;99186.50;;;8.34;75.21
59337;BME280;45115;52.002;4.686;2024-03-29T05:23:00;99183.25;;;8.31;75.80
59337;BME280;45115;52.002;4.686;2024-03-29T05:25:27;99185.31;;;8.24;76.73
59337;BME280;45115;52.002;4.686;2024-03-29T05:27:54;99190.78;;;8.18;76.65
59337;BME280;45115;52.002;4.686;2024-03-29T05:30:20;99190.47;;;8.08;77.60
59337;BME280;45115;52.002;4.686;2024-03-29T05:32:50;99206.06;;;8.04;78.28
59337;BME280;45115;52.002;4.686;2024-03-29T05:35:17;99205.00;;;7.92;79.38
59337;BME280;45115;52.002;4.686;2024-03-29T05:37:44;99197.59;;;7.88;79.74
59337;BME280;45115;52.002;4.686;2024-03-29T05:40:14;99204.44;;;7.87;80.04
59337;BME280;45115;52.002;4.686;2024-03-29T05:42:41;99204.59;;;7.84;80.38
59337;BME280;45115;52.002;4.686;2024-03-29T05:45:22;99208.22;;;7.80;81.34
59337;BME280;45115;52.002;4.686;2024-03-29T05:47:51;99206.16;;;7.87;81.07
59337;BME280;45115;52.002;4.686;2024-03-29T05:50:18;99219.09;;;7.84;81.76
59337;BME280;45115;52.002;4.686;2024-03-29T05:52:44;99215.97;;;7.78;82.27
59337;BME280;45115;52.002;4.686;2024-03-29T05:55:11;99224.28;;;7.82;82.32
59337;BME280;45115;52.002;4.686;2024-03-29T05:57:38;99231.13;;;7.81;82.56
59337;BME280;45115;52.002;4.686;2024-03-29T06:00:08;99236.16;;;7.83;82.83
59337;BME280;45115;52.002;4.686;2024-03-29T06:02:35;99243.06;;;7.81;83.19
59337;BME280;45115;52.002;4.686;2024-03-29T06:05:04;99248.09;;;7.82;82.82
59337;BME280;45115;52.002;4.686;2024-03-29T06:07:31;99244.03;;;7.94;82.36
59337;BME280;45115;52.002;4.686;2024-03-29T06:09:59;99243.13;;;7.95;82.91
59337;BME280;45115;52.002;4.686;2024-03-29T06:12:29;99252.44;;;7.96;83.14
59337;BME280;45115;52.002;4.686;2024-03-29T06:14:55;99244.78;;;7.96;83.17
59337;BME280;45115;52.002;4.686;2024-03-29T06:17:39;99251.38;;;8.00;83.18
59337;BME280;45115;52.002;4.686;2024-03-29T06:20:08;99251.63;;;7.96;83.08
59337;BME280;45115;52.002;4.686;2024-03-29T06:22:35;99267.53;;;8.01;83.26
59337;BME280;45115;52.002;4.686;2024-03-29T06:25:02;99279.47;;;8.00;83.09
59337;BME280;45115;52.002;4.686;2024-03-29T06:27:30;99275.69;;;8.07;83.52
59337;BME280;45115;52.002;4.686;2024-03-29T06:29:57;99276.34;;;8.11;82.97
59337;BME280;45115;52.002;4.686;2024-03-29T06:32:24;99275.44;;;8.12;83.63
59337;BME280;45115;52.002;4.686;2024-03-29T06:34:50;99274.38;;;8.16;83.68
59337;BME280;45115;52.002;4.686;2024-03-29T06:37:18;99268.50;;;8.30;83.22
59337;BME280;45115;52.002;4.686;2024-03-29T06:39:47;99266.84;;;8.29;83.43
59337;BME280;45115;52.002;4.686;2024-03-29T06:42:13;99255.50;;;8.34;83.07
59337;BME280;45115;52.002;4.686;2024-03-29T06:44:40;99256.72;;;8.43;82.93
59337;BME280;45115;52.002;4.686;2024-03-29T06:47:07;99264.59;;;8.54;82.56
59337;BME280;45115;52.002;4.686;2024-03-29T06:49:34;99255.69;;;8.61;81.95
59337;BME280;45115;52.002;4.686;2024-03-29T06:52:01;99250.41;;;8.64;82.00
59337;BME280;45115;52.002;4.686;2024-03-29T06:54:30;99261.66;;;8.76;81.78
59337;BME280;45115;52.002;4.686;2024-03-29T06:56:58;99272.44;;;8.81;80.76
59337;BME280;45115;52.002;4.686;2024-03-29T06:59:25;99257.75;;;8.85;81.16
59337;BME280;45115;52.002;4.686;2024-03-29T07:01:53;99261.94;;;8.71;81.12
59337;BME280;45115;52.002;4.686;2024-03-29T07:04:20;99279.13;;;8.83;81.53
59337;BME280;45115;52.002;4.686;2024-03-29T07:06:47;99262.44;;;8.92;80.59
59337;BME280;45115;52.002;4.686;2024-03-29T07:09:17;99265.56;;;8.97;80.31
59337;BME280;45115;52.002;4.686;2024-03-29T07:11:47;99255.16;;;9.14;80.10
59337;BME280;45115;52.002;4.686;2024-03-29T07:14:14;99258.25;;;9.05;79.65
59337;BME280;45115;52.002;4.686;2024-03-29T07:17:01;99270.59;;;9.13;79.61
59337;BME280;45115;52.002;4.686;2024-03-29T07:19:36;99263.69;;;9.29;79.10
59337;BME280;45115;52.002;4.686;2024-03-29T07:22:17;99271.38;;;9.29;78.66
59337;BME280;45115;52.002;4.686;2024-03-29T07:24:49;99272.63;;;9.36;78.12
59337;BME280;45115;52.002;4.686;2024-03-29T07:27:48;99281.94;;;9.66;77.30
59337;BME280;45115;52.002;4.686;2024-03-29T07:30:21;99279.66;;;9.75;76.45
59337;BME280;45115;52.002;4.686;2024-03-29T07:32:47;99285.09;;;9.57;77.04
59337;BME280;45115;52.002;4.686;2024-03-29T07:35:14;99285.91;;;9.57;76.59
59337;BME280;45115;52.002;4.686;2024-03-29T07:37:42;99284.69;;;9.77;76.38
59337;BME280;45115;52.002;4.686;2024-03-29T07:40:17;99279.47;;;9.78;75.97
59337;BME280;45115;52.002;4.686;2024-03-29T07:42:45;99291.31;;;10.08;74.81
59337;BME280;45115;52.002;4.686;2024-03-29T07:45:11;99295.81;;;10.04;75.38
59337;BME280;45115;52.002;4.686;2024-03-29T07:47:38;99297.72;;;10.29;74.12
59337;BME280;45115;52.002;4.686;2024-03-29T07:50:06;99292.56;;;10.56;74.00
59337;BME280;45115;52.002;4.686;2024-03-29T07:52:35;99286.50;;;10.97;72.02
59337;BME280;45115;52.002;4.686;2024-03-29T07:55:02;99282.50;;;10.93;71.77
59337;BME280;45115;52.002;4.686;2024-03-29T07:57:28;99291.38;;;10.74;72.33
59337;BME280;45115;52.002;4.686;2024-03-29T07:59:58;99284.28;;;10.65;72.58
59337;BME280;45115;52.002;4.686;2024-03-29T08:02:24;99274.81;;;11.05;71.16
59337;BME280;45115;52.002;4.686;2024-03-29T08:04:52;99284.06;;;11.21;70.21
59337;BME280;45115;52.002;4.686;2024-03-29T08:07:19;99288.69;;;11.15;70.28
59337;BME280;45115;52.002;4.686;2024-03-29T08:09:45;99293.00;;;11.15;69.71
59337;BME280;45115;52.002;4.686;2024-03-29T08:12:12;99295.53;;;11.02;70.22
59337;BME280;45115;52.002;4.686;2024-03-29T08:14:39;99302.34;;;11.16;70.22
59337;BME280;45115;52.002;4.686;2024-03-29T08:17:07;99292.25;;;11.64;68.56
59337;BME280;45115;52.002;4.686;2024-03-29T08:19:35;99294.94;;;11.62;68.90
59337;BME280;45115;52.002;4.686;2024-03-29T08:22:01;99289.47;;;11.54;68.47
59337;BME280;45115;52.002;4.686;2024-03-29T08:24:28;99292.34;;;11.62;68.85
59337;BME280;45115;52.002;4.686;2024-03-29T08:26:55;99303.47;;;11.75;68.32
59337;BME280;45115;52.002;4.686;2024-03-29T08:29:21;99307.06;;;11.73;67.97
59337;BME280;45115;52.002;4.686;2024-03-29T08:31:48;99316.72;;;11.69;68.14
59337;BME280;45115;52.002;4.686;2024-03-29T08:34:16;99322.78;;;11.43;68.99
59337;BME280;45115;52.002;4.686;2024-03-29T08:36:43;99330.69;;;11.27;69.57
59337;BME280;45115;52.002;4.686;2024-03-29T08:39:10;99321.75;;;11.20;69.90
59337;BME280;45115;52.002;4.686;2024-03-29T08:41:36;99328.03;;;11.16;70.58
59337;BME280;45115;52.002;4.686;2024-03-29T08:44:04;99325.16;;;11.21;70.77
59337;BME280;45115;52.002;4.686;2024-03-29T08:46:31;99324.03;;;11.37;70.53
59337;BME280;45115;52.002;4.686;2024-03-29T08:48:58;99316.75;;;11.44;69.80
59337;BME280;45115;52.002;4.686;2024-03-29T08:51:26;99316.81;;;11.55;69.69
59337;BME280;45115;52.002;4.686;2024-03-29T08:53:54;99316.91;;;11.92;68.52
59337;BME280;45115;52.002;4.686;2024-03-29T08:56:23;99317.47;;;12.20;68.02
59337;BME280;45115;52.002;4.686;2024-03-29T08:58:49;99324.53;;;12.53;68.01
59337;BME280;45115;52.002;4.686;2024-03-29T09:01:16;99324.97;;;12.47;66.75
59337;BME280;45115;52.002;4.686;2024-03-29T09:03:43;99331.13;;;12.58;66.98
59337;BME280;45115;52.002;4.686;2024-03-29T09:06:10;99325.13;;;12.81;66.67
59337;BME280;45115;52.002;4.686;2024-03-29T09:08:38;99318.44;;;12.78;65.90
59337;BME280;45115;52.002;4.686;2024-03-29T09:11:04;99328.97;;;12.75;65.44
59337;BME280;45115;52.002;4.686;2024-03-29T09:13:31;99326.88;;;12.80;66.00
59337;BME280;45115;52.002;4.686;2024-03-29T09:15:59;99331.66;;;12.74;65.50
59337;BME280;45115;52.002;4.686;2024-03-29T09:18:26;99338.84;;;12.93;66.03
59337;BME280;45115;52.002;4.686;2024-03-29T09:20:56;99339.53;;;12.83;65.75
59337;BME280;45115;52.002;4.686;2024-03-29T09:23:23;99358.94;;;12.76;65.51
59337;BME280;45115;52.002;4.686;2024-03-29T09:25:52;99358.44;;;12.71;66.17
59337;BME280;45115;52.002;4.686;2024-03-29T09:28:19;99348.06;;;13.08;65.43
59337;BME280;45115;52.002;4.686;2024-03-29T09:30:47;99354.13;;;13.07;65.00
59337;BME280;45115;52.002;4.686;2024-03-29T09:33:13;99370.25;;;12.98;65.08
59337;BME280;45115;52.002;4.686;2024-03-29T09:35:40;99359.56;;;12.91;65.39
59337;BME280;45115;52.002;4.686;2024-03-29T09:38:07;99372.72;;;12.99;65.22
59337;BME280;45115;52.002;4.686;2024-03-29T09:40:34;99367.38;;;12.78;65.20
59337;BME280;45115;52.002;4.686;2024-03-29T09:43:03;99386.59;;;12.85;65.26
59337;BME280;45115;52.002;4.686;2024-03-29T09:45:33;99394.06;;;12.88;65.88
59337;BME280;45115;52.002;4.686;2024-03-29T09:48:04;99399.28;;;13.00;64.98
59337;BME280;45115;52.002;4.686;2024-03-29T09:50:31;99391.50;;;13.12;64.85
59337;BME280;45115;52.002;4.686;2024-03-29T09:52:58;99384.22;;;13.41;64.62
59337;BME280;45115;52.002;4.686;2024-03-29T09:55:26;99375.84;;;13.84;64.21
59337;BME280;45115;52.002;4.686;2024-03-29T09:58:05;99359.31;;;13.86;62.35
59337;BME280;45115;52.002;4.686;2024-03-29T10:00:31;99361.56;;;13.91;63.43
59337;BME280;45115;52.002;4.686;2024-03-29T10:02:59;99370.94;;;13.92;61.82
59337;BME280;45115;52.002;4.686;2024-03-29T10:05:26;99380.75;;;13.65;62.56
59337;BME280;45115;52.002;4.686;2024-03-29T10:07:54;99377.94;;;13.57;63.28
59337;BME280;45115;52.002;4.686;2024-03-29T10:10:21;99364.78;;;13.37;62.93
59337;BME280;45115;52.002;4.686;2024-03-29T10:12:48;99372.41;;;13.39;63.88
59337;BME280;45115;52.002;4.686;2024-03-29T10:15:16;99377.47;;;13.16;64.37
59337;BME280;45115;52.002;4.686;2024-03-29T10:17:45;99377.03;;;12.99;65.54
59337;BME280;45115;52.002;4.686;2024-03-29T10:20:15;99379.31;;;12.79;65.52
59337;BME280;45115;52.002;4.686;2024-03-29T10:22:43;99381.09;;;12.66;67.04
59337;BME280;45115;52.002;4.686;2024-03-29T10:25:09;99379.44;;;12.89;65.74
59337;BME280;45115;52.002;4.686;2024-03-29T10:27:36;99376.06;;;13.12;65.34
59337;BME280;45115;52.002;4.686;2024-03-29T10:30:03;99384.72;;;13.58;63.83
59337;BME280;45115;52.002;4.686;2024-03-29T10:32:32;99392.94;;;13.96;62.95
59337;BME280;45115;52.002;4.686;2024-03-29T10:34:59;99390.25;;;14.31;62.15
59337;BME280;45115;52.002;4.686;2024-03-29T10:37:28;99376.25;;;14.67;61.21
59337;BME280;45115;52.002;4.686;2024-03-29T10:39:58;99385.00;;;14.10;61.82
59337;BME280;45115;52.002;4.686;2024-03-29T10:42:24;99392.03;;;14.08;61.73
59337;BME280;45115;52.002;4.686;2024-03-29T10:44:52;99397.66;;;13.91;62.22
59337;BME280;45115;52.002;4.686;2024-03-29T10:47:20;99395.19;;;14.01;61.24
59337;BME280;45115;52.002;4.686;2024-03-29T10:49:50;99390.63;;;13.93;61.22
59337;BME280;45115;52.002;4.686;2024-03-29T10:52:17;99394.25;;;14.13;61.86
59337;BME280;45115;52.002;4.686;2024-03-29T10:54:44;99395.78;;;13.93;61.03
59337;BME280;45115;52.002;4.686;2024-03-29T10:57:16;99404.94;;;13.86;61.30
59337;BME280;45115;52.002;4.686;2024-03-29T10:59:49;99419.56;;;13.97;61.32
59337;BME280;45115;52.002;4.686;2024-03-29T11:02:30;99422.16;;;13.97;61.09
59337;BME280;45115;52.002;4.686;2024-03-29T11:05:01;99426.75;;;13.93;61.71
59337;BME280;45115;52.002;4.686;2024-03-29T11:07:34;99420.16;;;13.67;61.52
59337;BME280;45115;52.002;4.686;2024-03-29T11:10:03;99411.22;;;13.71;61.54
59337;BME280;45115;52.002;4.686;2024-03-29T11:12:38;99420.97;;;14.34;61.82
59337;BME280;45115;52.002;4.686;2024-03-29T11:15:10;99418.50;;;14.55;59.34
59337;BME280;45115;52.002;4.686;2024-03-29T11:17:40;99413.50;;;14.97;59.04
59337;BME280;45115;52.002;4.686;2024-03-29T11:20:09;99418.59;;;15.08;55.84
59337;BME280;45115;52.002;4.686;2024-03-29T11:22:37;99419.38;;;15.19;56.19
59337;BME280;45115;52.002;4.686;2024-03-29T11:25:04;99414.69;;;15.13;55.44
59337;BME280;45115;52.002;4.686;2024-03-29T11:27:31;99420.06;;;14.89;55.12
59337;BME280;45115;52.002;4.686;2024-03-29T11:29:58;99418.09;;;15.14;54.85
59337;BME280;45115;52.002;4.686;2024-03-29T11:32:34;99421.69;;;15.02;55.04
59337;BME280;45115;52.002;4.686;2024-03-29T11:35:01;99414.91;;;15.21;54.77
59337;BME280;45115;52.002;4.686;2024-03-29T11:37:31;99417.41;;;15.12;53.87
59337;BME280;45115;52.002;4.686;2024-03-29T11:39:58;99408.84;;;15.32;54.90
59337;BME280;45115;52.002;4.686;2024-03-29T11:42:36;99414.88;;;15.74;53.30
59337;BME280;45115;52.002;4.686;2024-03-29T11:45:04;99419.22;;;15.53;53.15
59337;BME280;45115;52.002;4.686;2024-03-29T11:47:33;99411.84;;;15.48;53.11
59337;BME280;45115;52.002;4.686;2024-03-29T11:50:00;99412.41;;;15.52;52.74
59337;BME280;45115;52.002;4.686;2024-03-29T11:52:27;99430.06;;;15.47;53.38
59337;BME280;45115;52.002;4.686;2024-03-29T11:54:55;99422.97;;;15.81;52.47
59337;BME280;45115;52.002;4.686;2024-03-29T11:57:22;99419.41;;;15.61;52.40
59337;BME280;45115;52.002;4.686;2024-03-29T11:59:48;99419.41;;;15.61;54.05
59337;BME280;45115;52.002;4.686;2024-03-29T12:02:15;99431.53;;;15.61;54.25
59337;BME280;45115;52.002;4.686;2024-03-29T12:04:42;99439.38;;;15.38;53.75
59337;BME280;45115;52.002;4.686;2024-03-29T12:07:09;99442.56;;;15.10;56.92
59337;BME280;45115;52.002;4.686;2024-03-29T12:09:36;99444.25;;;15.00;55.13
59337;BME280;45115;52.002;4.686;2024-03-29T12:12:06;99436.16;;;14.93;55.62
59337;BME280;45115;52.002;4.686;2024-03-29T12:14:35;99442.16;;;14.94;55.10
59337;BME280;45115;52.002;4.686;2024-03-29T12:17:09;99425.13;;;15.23;54.93
59337;BME280;45115;52.002;4.686;2024-03-29T12:19:36;99426.91;;;15.43;56.15
59337;BME280;45115;52.002;4.686;2024-03-29T12:22:04;99424.63;;;15.29;54.29
59337;BME280;45115;52.002;4.686;2024-03-29T12:24:31;99434.03;;;15.30;55.15
59337;BME280;45115;52.002;4.686;2024-03-29T12:26:58;99432.38;;;15.29;54.19
59337;BME280;45115;52.002;4.686;2024-03-29T12:29:26;99427.81;;;15.53;54.63
59337;BME280;45115;52.002;4.686;2024-03-29T12:31:58;99427.41;;;15.37;53.74
59337;BME280;45115;52.002;4.686;2024-03-29T12:34:25;99433.50;;;15.68;54.08
59337;BME280;45115;52.002;4.686;2024-03-29T12:36:52;99439.66;;;15.98;54.13
59337;BME280;45115;52.002;4.686;2024-03-29T12:39:18;99432.88;;;16.06;51.92
59337;BME280;45115;52.002;4.686;2024-03-29T12:41:46;99434.03;;;16.23;51.99
59337;BME280;45115;52.002;4.686;2024-03-29T12:44:13;99436.78;;;16.71;52.21
59337;BME280;45115;52.002;4.686;2024-03-29T12:46:41;99430.69;;;16.82;50.82
59337;BME280;45115;52.002;4.686;2024-03-29T12:49:10;99424.31;;;16.96;51.44
59337;BME280;45115;52.002;4.686;2024-03-29T12:51:39;99428.38;;;16.48;50.76
59337;BME280;45115;52.002;4.686;2024-03-29T12:54:07;99418.75;;;16.20;50.71
59337;BME280;45115;52.002;4.686;2024-03-29T12:56:34;99427.13;;;16.33;51.20
59337;BME280;45115;52.002;4.686;2024-03-29T12:59:02;99442.41;;;16.36;50.33
59337;BME280;45115;52.002;4.686;2024-03-29T13:01:29;99444.06;;;16.47;50.43
59337;BME280;45115;52.002;4.686;2024-03-29T13:03:56;99435.84;;;16.42;50.53
59337;BME280;45115;52.002;4.686;2024-03-29T13:06:23;99436.16;;;16.48;49.61
59337;BME280;45115;52.002;4.686;2024-03-29T13:08:50;99436.97;;;16.39;49.71
59337;BME280;45115;52.002;4.686;2024-03-29T13:11:19;99442.84;;;16.11;50.79